sensor_id;sensor_type;location;lat;lon;timestamp;temperature;humidity
20319;DHT22;10317;47.254;11.314;2024-01-30T00:01:23;-0.50;99.90
20319;DHT22;10317;47.254;11.314;2024-01-30T00:03:49;-0.50;99.90
20319;DHT22;10317;47.254;11.314;2024-01-30T00:06:19;-0.60;99.90
20319;DHT22;10317;47.254;11.314;2024-01-30T00:08:46;-0.60;99.90
20319;DHT22;10317;47.254;11.314;2024-01-30T00:11:14;-0.60;99.90
20319;DHT22;10317;47.254;11.314;2024-01-30T00:13:40;-0.60;99.90
20319;DHT22;10317;47.254;11.314;2024-01-30T00:16:06;-0.70;99.90
20319;DHT22;10317;47.254;11.314;2024-01-30T00:18:32;-0.60;99.90
20319;DHT22;10317;47.254;11.314;2024-01-30T00:20:58;-0.60;99.90
20319;DHT22;10317;47.254;11.314;2024-01-30T00:23:23;-0.60;99.90
20319;DHT22;10317;47.254;11.314;2024-01-30T00:25:50;-0.70;99.90
20319;DHT22;10317;47.254;11.314;2024-01-30T00:28:16;-0.60;99.90
20319;DHT22;10317;47.254;11.314;2024-01-30T00:30:41;-0.70;99.90
20319;DHT22;10317;47.254;11.314;2024-01-30T00:33:08;-0.70;99.90
20319;DHT22;10317;47.254;11.314;2024-01-30T00:35:34;-0.80;99.90
20319;DHT22;10317;47.254;11.314;2024-01-30T00:38:00;-0.80;99.90
20319;DHT22;10317;47.254;11.314;2024-01-30T00:40:26;-0.80;99.90
20319;DHT22;10317;47.254;11.314;2024-01-30T00:42:51;-0.80;99.90
20319;DHT22;10317;47.254;11.314;2024-01-30T00:45:17;-0.80;99.90
20319;DHT22;10317;47.254;11.314;2024-01-30T00:47:44;-0.80;99.90
20319;DHT22;10317;47.254;11.314;2024-01-30T00:50:10;-0.80;99.90
20319;DHT22;10317;47.254;11.314;2024-01-30T00:52:36;-0.80;99.90
20319;DHT22;10317;47.254;11.314;2024-01-30T00:55:02;-0.80;99.90
20319;DHT22;10317;47.254;11.314;2024-01-30T00:57:28;-0.80;99.90
20319;DHT22;10317;47.254;11.314;2024-01-30T00:59:54;-0.80;99.90
20319;DHT22;10317;47.254;11.314;2024-01-30T01:02:20;-0.80;99.90
20319;DHT22;10317;47.254;11.314;2024-01-30T01:04:46;-0.80;99.90
20319;DHT22;10317;47.254;11.314;2024-01-30T01:07:11;-0.90;99.90
20319;DHT22;10317;47.254;11.314;2024-01-30T01:09:37;-0.90;99.90
20319;DHT22;10317;47.254;11.314;2024-01-30T01:12:03;-0.90;99.90
20319;DHT22;10317;47.254;11.314;2024-01-30T01:14:30;-1.00;99.90
20319;DHT22;10317;47.254;11.314;2024-01-30T01:16:55;-1.00;99.90
20319;DHT22;10317;47.254;11.314;2024-01-30T01:19:21;-1.00;99.90
20319;DHT22;10317;47.254;11.314;2024-01-30T01:21:47;-1.00;99.90
20319;DHT22;10317;47.254;11.314;2024-01-30T01:24:13;-1.00;99.90
20319;DHT22;10317;47.254;11.314;2024-01-30T01:26:39;-1.00;99.90
20319;DHT22;10317;47.254;11.314;2024-01-30T01:29:05;-1.00;99.90
20319;DHT22;10317;47.254;11.314;2024-01-30T01:31:36;-1.10;99.90
20319;DHT22;10317;47.254;11.314;2024-01-30T01:34:05;-1.00;99.90
20319;DHT22;10317;47.254;11.314;2024-01-30T01:36:31;-1.00;99.90
20319;DHT22;10317;47.254;11.314;2024-01-30T01:38:57;-1.10;99.90
20319;DHT22;10317;47.254;11.314;2024-01-30T01:41:23;-1.10;99.90
20319;DHT22;10317;47.254;11.314;2024-01-30T01:43:48;-1.10;99.90
20319;DHT22;10317;47.254;11.314;2024-01-30T01:46:14;-1.10;99.90
20319;DHT22;10317;47.254;11.314;2024-01-30T01:48:41;-1.20;99.90
20319;DHT22;10317;47.254;11.314;2024-01-30T01:51:08;-1.10;99.90
20319;DHT22;10317;47.254;11.314;2024-01-30T01:53:35;-1.10;99.90
20319;DHT22;10317;47.254;11.314;2024-01-30T01:56:00;-1.20;99.90
20319;DHT22;10317;47.254;11.314;2024-01-30T01:58:27;-1.20;99.90
20319;DHT22;10317;47.254;11.314;2024-01-30T02:00:54;-1.20;99.90
20319;DHT22;10317;47.254;11.314;2024-01-30T02:03:21;-1.20;99.90
20319;DHT22;10317;47.254;11.314;2024-01-30T02:05:47;-1.20;99.90
20319;DHT22;10317;47.254;11.314;2024-01-30T02:08:12;-1.30;99.90
20319;DHT22;10317;47.254;11.314;2024-01-30T02:10:38;-1.30;99.90
20319;DHT22;10317;47.254;11.314;2024-01-30T02:13:04;-1.30;99.90
20319;DHT22;10317;47.254;11.314;2024-01-30T02:15:30;-1.30;99.90
20319;DHT22;10317;47.254;11.314;2024-01-30T02:17:56;-1.30;99.90
20319;DHT22;10317;47.254;11.314;2024-01-30T02:20:23;-1.30;99.90
20319;DHT22;10317;47.254;11.314;2024-01-30T02:22:51;-1.30;99.90
20319;DHT22;10317;47.254;11.314;2024-01-30T02:25:17;-1.30;99.90
20319;DHT22;10317;47.254;11.314;2024-01-30T02:27:42;-1.40;99.90
20319;DHT22;10317;47.254;11.314;2024-01-30T02:30:08;-1.30;99.90
20319;DHT22;10317;47.254;11.314;2024-01-30T02:32:34;-1.30;99.90
20319;DHT22;10317;47.254;11.314;2024-01-30T02:34:59;-1.30;99.90
20319;DHT22;10317;47.254;11.314;2024-01-30T02:37:25;-1.30;99.90
20319;DHT22;10317;47.254;11.314;2024-01-30T02:39:51;-1.30;99.90
20319;DHT22;10317;47.254;11.314;2024-01-30T02:42:16;-1.40;99.90
20319;DHT22;10317;47.254;11.314;2024-01-30T02:44:42;-1.40;99.90
20319;DHT22;10317;47.254;11.314;2024-01-30T02:47:08;-1.40;99.90
20319;DHT22;10317;47.254;11.314;2024-01-30T02:49:33;-1.40;99.90
20319;DHT22;10317;47.254;11.314;2024-01-30T02:51:59;-1.40;99.90
20319;DHT22;10317;47.254;11.314;2024-01-30T02:54:24;-1.40;99.90
20319;DHT22;10317;47.254;11.314;2024-01-30T02:56:50;-1.40;99.90
20319;DHT22;10317;47.254;11.314;2024-01-30T02:59:16;-1.50;99.90
20319;DHT22;10317;47.254;11.314;2024-01-30T03:01:43;-1.50;99.90
20319;DHT22;10317;47.254;11.314;2024-01-30T03:04:09;-1.50;99.90
20319;DHT22;10317;47.254;11.314;2024-01-30T03:06:35;-1.50;99.90
20319;DHT22;10317;47.254;11.314;2024-01-30T03:09:01;-1.50;99.90
20319;DHT22;10317;47.254;11.314;2024-01-30T03:11:26;-1.50;99.90
20319;DHT22;10317;47.254;11.314;2024-01-30T03:13:52;-1.50;99.90
20319;DHT22;10317;47.254;11.314;2024-01-30T03:16:18;-1.40;99.90
20319;DHT22;10317;47.254;11.314;2024-01-30T03:18:43;-1.50;99.90
20319;DHT22;10317;47.254;11.314;2024-01-30T03:21:09;-1.50;99.90
20319;DHT22;10317;47.254;11.314;2024-01-30T03:23:35;-1.60;99.90
20319;DHT22;10317;47.254;11.314;2024-01-30T03:26:00;-1.60;99.90
20319;DHT22;10317;47.254;11.314;2024-01-30T03:28:26;-1.60;99.90
20319;DHT22;10317;47.254;11.314;2024-01-30T03:30:52;-1.60;99.90
20319;DHT22;10317;47.254;11.314;2024-01-30T03:33:17;-1.60;99.90
20319;DHT22;10317;47.254;11.314;2024-01-30T03:35:43;-1.60;99.90
20319;DHT22;10317;47.254;11.314;2024-01-30T03:38:08;-1.70;99.90
20319;DHT22;10317;47.254;11.314;2024-01-30T03:40:34;-1.60;99.90
20319;DHT22;10317;47.254;11.314;2024-01-30T03:43:00;-1.70;99.90
20319;DHT22;10317;47.254;11.314;2024-01-30T03:45:25;-1.70;99.90
20319;DHT22;10317;47.254;11.314;2024-01-30T03:47:51;-1.70;99.90
20319;DHT22;10317;47.254;11.314;2024-01-30T03:50:17;-1.70;99.90
20319;DHT22;10317;47.254;11.314;2024-01-30T03:52:42;-1.70;99.90
20319;DHT22;10317;47.254;11.314;2024-01-30T03:55:08;-1.70;99.90
20319;DHT22;10317;47.254;11.314;2024-01-30T03:57:33;-1.70;99.90
20319;DHT22;10317;47.254;11.314;2024-01-30T03:59:59;-1.70;99.90
20319;DHT22;10317;47.254;11.314;2024-01-30T04:02:25;-1.80;99.90
20319;DHT22;10317;47.254;11.314;2024-01-30T04:04:50;-1.70;99.90
20319;DHT22;10317;47.254;11.314;2024-01-30T04:07:16;-1.80;99.90
20319;DHT22;10317;47.254;11.314;2024-01-30T04:09:42;-1.80;99.90
20319;DHT22;10317;47.254;11.314;2024-01-30T04:12:07;-1.80;99.90
20319;DHT22;10317;47.254;11.314;2024-01-30T04:14:33;-1.80;99.90
20319;DHT22;10317;47.254;11.314;2024-01-30T04:16:59;-1.80;99.90
20319;DHT22;10317;47.254;11.314;2024-01-30T04:19:24;-1.80;99.90
20319;DHT22;10317;47.254;11.314;2024-01-30T04:21:50;-1.80;99.90
20319;DHT22;10317;47.254;11.314;2024-01-30T04:24:16;-1.70;99.90
20319;DHT22;10317;47.254;11.314;2024-01-30T04:26:44;-1.80;99.90
20319;DHT22;10317;47.254;11.314;2024-01-30T04:29:09;-1.80;99.90
20319;DHT22;10317;47.254;11.314;2024-01-30T04:31:36;-1.80;99.90
20319;DHT22;10317;47.254;11.314;2024-01-30T04:34:02;-1.80;99.90
20319;DHT22;10317;47.254;11.314;2024-01-30T04:36:28;-1.90;99.90
20319;DHT22;10317;47.254;11.314;2024-01-30T04:38:53;-1.90;99.90
20319;DHT22;10317;47.254;11.314;2024-01-30T04:41:19;-1.90;99.90
20319;DHT22;10317;47.254;11.314;2024-01-30T04:43:44;-1.80;99.90
20319;DHT22;10317;47.254;11.314;2024-01-30T04:46:10;-1.80;99.90
20319;DHT22;10317;47.254;11.314;2024-01-30T04:48:36;-1.80;99.90
20319;DHT22;10317;47.254;11.314;2024-01-30T04:51:01;-1.80;99.90
20319;DHT22;10317;47.254;11.314;2024-01-30T04:53:30;-1.90;99.90
20319;DHT22;10317;47.254;11.314;2024-01-30T04:55:56;-1.90;99.90
20319;DHT22;10317;47.254;11.314;2024-01-30T04:58:22;-1.90;99.90
20319;DHT22;10317;47.254;11.314;2024-01-30T05:00:47;-1.80;99.90
20319;DHT22;10317;47.254;11.314;2024-01-30T05:03:17;-1.80;99.90
20319;DHT22;10317;47.254;11.314;2024-01-30T05:05:43;-1.80;99.90
20319;DHT22;10317;47.254;11.314;2024-01-30T05:08:08;-1.90;99.90
20319;DHT22;10317;47.254;11.314;2024-01-30T05:10:34;-1.90;99.90
20319;DHT22;10317;47.254;11.314;2024-01-30T05:13:00;-1.90;99.90
20319;DHT22;10317;47.254;11.314;2024-01-30T05:15:25;-1.90;99.90
20319;DHT22;10317;47.254;11.314;2024-01-30T05:17:51;-1.90;99.90
20319;DHT22;10317;47.254;11.314;2024-01-30T05:20:17;-2.00;99.90
20319;DHT22;10317;47.254;11.314;2024-01-30T05:22:43;-2.00;99.90
20319;DHT22;10317;47.254;11.314;2024-01-30T05:25:11;-2.00;99.90
20319;DHT22;10317;47.254;11.314;2024-01-30T05:27:37;-2.00;99.90
20319;DHT22;10317;47.254;11.314;2024-01-30T05:30:04;-2.00;99.90
20319;DHT22;10317;47.254;11.314;2024-01-30T05:32:30;-2.00;99.90
20319;DHT22;10317;47.254;11.314;2024-01-30T05:34:55;-2.00;99.90
20319;DHT22;10317;47.254;11.314;2024-01-30T05:37:21;-2.00;99.90
20319;DHT22;10317;47.254;11.314;2024-01-30T05:39:46;-2.10;99.90
20319;DHT22;10317;47.254;11.314;2024-01-30T05:42:12;-2.00;99.90
20319;DHT22;10317;47.254;11.314;2024-01-30T05:44:38;-2.00;99.90
20319;DHT22;10317;47.254;11.314;2024-01-30T05:47:04;-2.00;99.90
20319;DHT22;10317;47.254;11.314;2024-01-30T05:49:29;-2.00;99.90
20319;DHT22;10317;47.254;11.314;2024-01-30T05:51:55;-2.00;99.90
20319;DHT22;10317;47.254;11.314;2024-01-30T05:54:21;-2.00;99.90
20319;DHT22;10317;47.254;11.314;2024-01-30T05:56:46;-2.00;99.90
20319;DHT22;10317;47.254;11.314;2024-01-30T05:59:12;-2.00;99.90
20319;DHT22;10317;47.254;11.314;2024-01-30T06:01:38;-2.10;99.90
20319;DHT22;10317;47.254;11.314;2024-01-30T06:04:03;-2.10;99.90
20319;DHT22;10317;47.254;11.314;2024-01-30T06:06:29;-2.10;99.90
20319;DHT22;10317;47.254;11.314;2024-01-30T06:08:55;-2.10;99.90
20319;DHT22;10317;47.254;11.314;2024-01-30T06:11:21;-2.10;99.90
20319;DHT22;10317;47.254;11.314;2024-01-30T06:13:47;-2.20;99.90
20319;DHT22;10317;47.254;11.314;2024-01-30T06:16:12;-2.20;99.90
20319;DHT22;10317;47.254;11.314;2024-01-30T06:18:38;-2.10;99.90
20319;DHT22;10317;47.254;11.314;2024-01-30T06:21:05;-2.10;99.90
20319;DHT22;10317;47.254;11.314;2024-01-30T06:23:30;-2.10;99.90
20319;DHT22;10317;47.254;11.314;2024-01-30T06:25:56;-2.20;99.90
20319;DHT22;10317;47.254;11.314;2024-01-30T06:28:21;-2.20;99.90
20319;DHT22;10317;47.254;11.314;2024-01-30T06:30:47;-2.20;99.90
20319;DHT22;10317;47.254;11.314;2024-01-30T06:33:13;-2.20;99.90
20319;DHT22;10317;47.254;11.314;2024-01-30T06:35:40;-2.20;99.90
20319;DHT22;10317;47.254;11.314;2024-01-30T06:38:06;-2.20;99.90
20319;DHT22;10317;47.254;11.314;2024-01-30T06:40:32;-2.20;99.90
20319;DHT22;10317;47.254;11.314;2024-01-30T06:42:57;-2.20;99.90
20319;DHT22;10317;47.254;11.314;2024-01-30T06:45:23;-2.20;99.90
20319;DHT22;10317;47.254;11.314;2024-01-30T06:47:48;-2.20;99.90
20319;DHT22;10317;47.254;11.314;2024-01-30T06:50:14;-2.20;99.90
20319;DHT22;10317;47.254;11.314;2024-01-30T06:52:40;-2.20;99.90
20319;DHT22;10317;47.254;11.314;2024-01-30T06:55:06;-2.20;99.90
20319;DHT22;10317;47.254;11.314;2024-01-30T06:57:31;-2.20;99.90
20319;DHT22;10317;47.254;11.314;2024-01-30T06:59:57;-2.20;99.90
20319;DHT22;10317;47.254;11.314;2024-01-30T07:02:23;-2.10;99.90
20319;DHT22;10317;47.254;11.314;2024-01-30T07:04:49;-2.10;99.90
20319;DHT22;10317;47.254;11.314;2024-01-30T07:07:16;-2.10;99.90
20319;DHT22;10317;47.254;11.314;2024-01-30T07:09:41;-2.00;99.90
20319;DHT22;10317;47.254;11.314;2024-01-30T07:12:07;-1.90;99.90
20319;DHT22;10317;47.254;11.314;2024-01-30T07:14:33;-1.90;99.90
20319;DHT22;10317;47.254;11.314;2024-01-30T07:16:59;-1.90;99.90
20319;DHT22;10317;47.254;11.314;2024-01-30T07:19:24;-1.90;99.90
20319;DHT22;10317;47.254;11.314;2024-01-30T07:21:50;-1.90;99.90
20319;DHT22;10317;47.254;11.314;2024-01-30T07:24:16;-1.90;99.90
20319;DHT22;10317;47.254;11.314;2024-01-30T07:26:41;-1.80;99.90
20319;DHT22;10317;47.254;11.314;2024-01-30T07:29:07;-1.80;99.90
20319;DHT22;10317;47.254;11.314;2024-01-30T07:31:33;-1.80;99.90
20319;DHT22;10317;47.254;11.314;2024-01-30T07:33:58;-1.80;99.90
20319;DHT22;10317;47.254;11.314;2024-01-30T07:36:24;-1.80;99.90
20319;DHT22;10317;47.254;11.314;2024-01-30T07:38:49;-1.70;99.90
20319;DHT22;10317;47.254;11.314;2024-01-30T07:41:15;-1.70;99.90
20319;DHT22;10317;47.254;11.314;2024-01-30T07:43:42;-1.60;99.90
20319;DHT22;10317;47.254;11.314;2024-01-30T07:46:08;-1.60;99.90
20319;DHT22;10317;47.254;11.314;2024-01-30T07:48:34;-1.60;99.90
20319;DHT22;10317;47.254;11.314;2024-01-30T07:51:00;-1.50;99.90
20319;DHT22;10317;47.254;11.314;2024-01-30T07:53:25;-1.50;99.90
20319;DHT22;10317;47.254;11.314;2024-01-30T07:55:52;-1.50;99.90
20319;DHT22;10317;47.254;11.314;2024-01-30T07:58:18;-1.40;99.90
20319;DHT22;10317;47.254;11.314;2024-01-30T08:00:44;-1.40;99.90
20319;DHT22;10317;47.254;11.314;2024-01-30T08:03:10;-1.40;99.90
20319;DHT22;10317;47.254;11.314;2024-01-30T08:05:36;-1.30;99.90
20319;DHT22;10317;47.254;11.314;2024-01-30T08:08:01;-1.30;99.90
20319;DHT22;10317;47.254;11.314;2024-01-30T08:10:27;-1.30;99.90
20319;DHT22;10317;47.254;11.314;2024-01-30T08:12:53;-1.30;99.90
20319;DHT22;10317;47.254;11.314;2024-01-30T08:15:18;-1.30;99.90
20319;DHT22;10317;47.254;11.314;2024-01-30T08:17:44;-1.20;99.90
20319;DHT22;10317;47.254;11.314;2024-01-30T08:20:11;-1.20;99.90
20319;DHT22;10317;47.254;11.314;2024-01-30T08:22:38;-1.20;99.90
20319;DHT22;10317;47.254;11.314;2024-01-30T08:25:06;-1.10;99.90
20319;DHT22;10317;47.254;11.314;2024-01-30T08:27:31;-1.20;99.90
20319;DHT22;10317;47.254;11.314;2024-01-30T08:29:57;-1.10;99.90
20319;DHT22;10317;47.254;11.314;2024-01-30T08:32:23;-1.10;99.90
20319;DHT22;10317;47.254;11.314;2024-01-30T08:34:49;-1.00;99.90
20319;DHT22;10317;47.254;11.314;2024-01-30T08:37:15;-1.00;99.90
20319;DHT22;10317;47.254;11.314;2024-01-30T08:39:43;-0.90;99.90
20319;DHT22;10317;47.254;11.314;2024-01-30T08:42:08;-0.90;99.90
20319;DHT22;10317;47.254;11.314;2024-01-30T08:44:34;-0.80;99.90
20319;DHT22;10317;47.254;11.314;2024-01-30T08:47:00;-0.80;99.90
20319;DHT22;10317;47.254;11.314;2024-01-30T08:49:26;-0.80;99.90
20319;DHT22;10317;47.254;11.314;2024-01-30T08:51:51;-0.70;99.90
20319;DHT22;10317;47.254;11.314;2024-01-30T08:54:17;-0.70;99.90
20319;DHT22;10317;47.254;11.314;2024-01-30T08:56:43;-0.60;99.90
20319;DHT22;10317;47.254;11.314;2024-01-30T08:59:08;-0.60;99.90
20319;DHT22;10317;47.254;11.314;2024-01-30T09:01:34;-0.60;99.90
20319;DHT22;10317;47.254;11.314;2024-01-30T09:04:00;-0.60;99.90
20319;DHT22;10317;47.254;11.314;2024-01-30T09:06:25;-0.50;99.90
20319;DHT22;10317;47.254;11.314;2024-01-30T09:08:53;-0.50;99.90
20319;DHT22;10317;47.254;11.314;2024-01-30T09:11:19;-0.40;99.90
20319;DHT22;10317;47.254;11.314;2024-01-30T09:13:44;-0.40;99.90
20319;DHT22;10317;47.254;11.314;2024-01-30T09:16:10;-0.30;99.90
20319;DHT22;10317;47.254;11.314;2024-01-30T09:18:36;-0.20;99.90
20319;DHT22;10317;47.254;11.314;2024-01-30T09:21:02;-0.20;99.90
20319;DHT22;10317;47.254;11.314;2024-01-30T09:23:27;-0.10;99.90
20319;DHT22;10317;47.254;11.314;2024-01-30T09:25:53;-0.10;99.90
20319;DHT22;10317;47.254;11.314;2024-01-30T09:28:19;0.10;99.90
20319;DHT22;10317;47.254;11.314;2024-01-30T09:30:45;0.10;99.90
20319;DHT22;10317;47.254;11.314;2024-01-30T09:33:10;0.30;99.90
20319;DHT22;10317;47.254;11.314;2024-01-30T09:35:36;0.90;99.90
20319;DHT22;10317;47.254;11.314;2024-01-30T09:38:02;2.50;99.90
20319;DHT22;10317;47.254;11.314;2024-01-30T09:40:28;5.40;99.90
20319;DHT22;10317;47.254;11.314;2024-01-30T09:42:54;7.80;99.90
20319;DHT22;10317;47.254;11.314;2024-01-30T09:45:24;9.50;99.90
20319;DHT22;10317;47.254;11.314;2024-01-30T09:47:50;11.00;99.90
20319;DHT22;10317;47.254;11.314;2024-01-30T09:50:17;12.80;94.40
20319;DHT22;10317;47.254;11.314;2024-01-30T09:52:49;14.20;87.90
20319;DHT22;10317;47.254;11.314;2024-01-30T09:55:16;14.20;82.20
20319;DHT22;10317;47.254;11.314;2024-01-30T09:57:42;15.00;75.10
20319;DHT22;10317;47.254;11.314;2024-01-30T10:00:09;16.90;71.60
20319;DHT22;10317;47.254;11.314;2024-01-30T10:02:35;19.20;63.10
20319;DHT22;10317;47.254;11.314;2024-01-30T10:05:01;20.80;61.10
20319;DHT22;10317;47.254;11.314;2024-01-30T10:07:27;22.50;54.80
20319;DHT22;10317;47.254;11.314;2024-01-30T10:09:53;23.90;48.30
20319;DHT22;10317;47.254;11.314;2024-01-30T10:12:20;25.00;49.30
20319;DHT22;10317;47.254;11.314;2024-01-30T10:14:46;26.00;42.80
20319;DHT22;10317;47.254;11.314;2024-01-30T10:17:12;26.00;41.60
20319;DHT22;10317;47.254;11.314;2024-01-30T10:19:41;26.20;42.30
20319;DHT22;10317;47.254;11.314;2024-01-30T10:22:07;25.90;40.40
20319;DHT22;10317;47.254;11.314;2024-01-30T10:24:34;25.80;41.40
20319;DHT22;10317;47.254;11.314;2024-01-30T10:27:00;26.60;40.70
20319;DHT22;10317;47.254;11.314;2024-01-30T10:29:27;27.90;39.80
20319;DHT22;10317;47.254;11.314;2024-01-30T10:32:03;28.60;39.60
20319;DHT22;10317;47.254;11.314;2024-01-30T10:34:30;29.00;36.50
20319;DHT22;10317;47.254;11.314;2024-01-30T10:37:16;29.40;36.70
20319;DHT22;10317;47.254;11.314;2024-01-30T10:39:43;29.80;35.90
20319;DHT22;10317;47.254;11.314;2024-01-30T10:42:17;29.90;35.90
20319;DHT22;10317;47.254;11.314;2024-01-30T10:47:30;30.80;34.50
20319;DHT22;10317;47.254;11.314;2024-01-30T10:49:56;29.90;34.60
20319;DHT22;10317;47.254;11.314;2024-01-30T10:52:25;29.80;34.20
20319;DHT22;10317;47.254;11.314;2024-01-30T10:54:53;30.00;34.10
20319;DHT22;10317;47.254;11.314;2024-01-30T10:57:19;30.50;34.40
20319;DHT22;10317;47.254;11.314;2024-01-30T10:59:48;30.40;33.80
20319;DHT22;10317;47.254;11.314;2024-01-30T11:02:14;30.20;33.40
20319;DHT22;10317;47.254;11.314;2024-01-30T11:04:41;29.90;32.80
20319;DHT22;10317;47.254;11.314;2024-01-30T11:07:16;30.00;33.90
20319;DHT22;10317;47.254;11.314;2024-01-30T11:09:53;30.50;33.90
20319;DHT22;10317;47.254;11.314;2024-01-30T11:12:26;31.10;32.70
20319;DHT22;10317;47.254;11.314;2024-01-30T11:15:08;31.30;33.20
20319;DHT22;10317;47.254;11.314;2024-01-30T11:20:25;31.10;32.10
20319;DHT22;10317;47.254;11.314;2024-01-30T11:22:52;30.40;31.80
20319;DHT22;10317;47.254;11.314;2024-01-30T11:25:22;29.50;32.80
20319;DHT22;10317;47.254;11.314;2024-01-30T11:27:55;28.80;32.80
20319;DHT22;10317;47.254;11.314;2024-01-30T11:30:28;27.60;33.50
20319;DHT22;10317;47.254;11.314;2024-01-30T11:35:34;26.40;35.20
20319;DHT22;10317;47.254;11.314;2024-01-30T11:38:01;25.70;35.50
20319;DHT22;10317;47.254;11.314;2024-01-30T11:40:28;25.30;35.70
20319;DHT22;10317;47.254;11.314;2024-01-30T11:42:55;24.80;35.40
20319;DHT22;10317;47.254;11.314;2024-01-30T11:45:21;24.30;34.70
20319;DHT22;10317;47.254;11.314;2024-01-30T11:47:47;23.70;36.20
20319;DHT22;10317;47.254;11.314;2024-01-30T11:50:13;22.80;38.00
20319;DHT22;10317;47.254;11.314;2024-01-30T11:52:39;22.10;38.50
20319;DHT22;10317;47.254;11.314;2024-01-30T11:55:05;21.50;38.40
20319;DHT22;10317;47.254;11.314;2024-01-30T11:57:31;21.00;39.90
20319;DHT22;10317;47.254;11.314;2024-01-30T11:59:57;20.40;40.60
20319;DHT22;10317;47.254;11.314;2024-01-30T12:02:23;19.70;42.00
20319;DHT22;10317;47.254;11.314;2024-01-30T12:04:48;19.00;41.10
20319;DHT22;10317;47.254;11.314;2024-01-30T12:07:14;18.40;41.90
20319;DHT22;10317;47.254;11.314;2024-01-30T12:09:42;17.90;41.40
20319;DHT22;10317;47.254;11.314;2024-01-30T12:12:08;17.50;43.90
20319;DHT22;10317;47.254;11.314;2024-01-30T12:14:39;17.20;45.80
20319;DHT22;10317;47.254;11.314;2024-01-30T12:17:05;16.90;44.70
20319;DHT22;10317;47.254;11.314;2024-01-30T12:19:30;16.70;45.60
20319;DHT22;10317;47.254;11.314;2024-01-30T12:21:56;16.50;46.30
20319;DHT22;10317;47.254;11.314;2024-01-30T12:24:25;16.20;46.70
20319;DHT22;10317;47.254;11.314;2024-01-30T12:26:51;16.00;48.10
20319;DHT22;10317;47.254;11.314;2024-01-30T12:29:17;15.40;49.20
20319;DHT22;10317;47.254;11.314;2024-01-30T12:31:43;15.00;48.80
20319;DHT22;10317;47.254;11.314;2024-01-30T12:34:09;14.60;49.10
20319;DHT22;10317;47.254;11.314;2024-01-30T12:36:39;14.30;48.90
20319;DHT22;10317;47.254;11.314;2024-01-30T12:39:04;14.10;50.10
20319;DHT22;10317;47.254;11.314;2024-01-30T12:41:30;14.00;49.40
20319;DHT22;10317;47.254;11.314;2024-01-30T12:43:59;14.00;50.60
20319;DHT22;10317;47.254;11.314;2024-01-30T12:46:28;14.20;51.50
20319;DHT22;10317;47.254;11.314;2024-01-30T12:48:54;14.40;50.20
20319;DHT22;10317;47.254;11.314;2024-01-30T12:51:20;14.40;49.70
20319;DHT22;10317;47.254;11.314;2024-01-30T12:53:45;14.70;50.20
20319;DHT22;10317;47.254;11.314;2024-01-30T12:56:13;14.90;51.00
20319;DHT22;10317;47.254;11.314;2024-01-30T12:58:40;15.10;49.80
20319;DHT22;10317;47.254;11.314;2024-01-30T13:01:08;15.40;50.50
20319;DHT22;10317;47.254;11.314;2024-01-30T13:03:34;15.50;49.80
20319;DHT22;10317;47.254;11.314;2024-01-30T13:05:59;15.60;49.90
20319;DHT22;10317;47.254;11.314;2024-01-30T13:08:25;15.80;50.70
20319;DHT22;10317;47.254;11.314;2024-01-30T13:10:51;15.70;50.50
20319;DHT22;10317;47.254;11.314;2024-01-30T13:13:16;15.50;50.40
20319;DHT22;10317;47.254;11.314;2024-01-30T13:15:42;15.40;49.40
20319;DHT22;10317;47.254;11.314;2024-01-30T13:18:08;15.40;48.50
20319;DHT22;10317;47.254;11.314;2024-01-30T13:20:34;15.40;52.30
20319;DHT22;10317;47.254;11.314;2024-01-30T13:22:59;15.40;51.10
20319;DHT22;10317;47.254;11.314;2024-01-30T13:25:25;15.40;50.90
20319;DHT22;10317;47.254;11.314;2024-01-30T13:27:51;15.50;50.50
20319;DHT22;10317;47.254;11.314;2024-01-30T13:30:16;15.50;50.90
20319;DHT22;10317;47.254;11.314;2024-01-30T13:32:42;15.50;49.70
20319;DHT22;10317;47.254;11.314;2024-01-30T13:35:09;15.50;50.50
20319;DHT22;10317;47.254;11.314;2024-01-30T13:37:35;15.40;51.30
20319;DHT22;10317;47.254;11.314;2024-01-30T13:40:04;15.30;50.00
20319;DHT22;10317;47.254;11.314;2024-01-30T13:42:32;15.30;50.80
20319;DHT22;10317;47.254;11.314;2024-01-30T13:44:58;15.10;51.70
20319;DHT22;10317;47.254;11.314;2024-01-30T13:47:24;15.00;51.60
20319;DHT22;10317;47.254;11.314;2024-01-30T13:49:50;14.90;50.80
20319;DHT22;10317;47.254;11.314;2024-01-30T13:52:18;14.90;53.10
20319;DHT22;10317;47.254;11.314;2024-01-30T13:54:43;14.70;51.50
20319;DHT22;10317;47.254;11.314;2024-01-30T13:57:09;14.60;51.00
20319;DHT22;10317;47.254;11.314;2024-01-30T13:59:35;14.60;51.30
20319;DHT22;10317;47.254;11.314;2024-01-30T14:02:01;14.50;51.10
20319;DHT22;10317;47.254;11.314;2024-01-30T14:04:26;14.30;51.00
20319;DHT22;10317;47.254;11.314;2024-01-30T14:06:52;14.00;51.00
20319;DHT22;10317;47.254;11.314;2024-01-30T14:09:18;13.60;51.30
20319;DHT22;10317;47.254;11.314;2024-01-30T14:11:43;13.20;52.40
20319;DHT22;10317;47.254;11.314;2024-01-30T14:14:09;12.70;51.80
20319;DHT22;10317;47.254;11.314;2024-01-30T14:16:35;12.20;52.50
20319;DHT22;10317;47.254;11.314;2024-01-30T14:19:01;11.90;53.30
20319;DHT22;10317;47.254;11.314;2024-01-30T14:21:26;11.70;54.20
20319;DHT22;10317;47.254;11.314;2024-01-30T14:23:52;11.50;54.70
20319;DHT22;10317;47.254;11.314;2024-01-30T14:26:18;11.30;54.90
20319;DHT22;10317;47.254;11.314;2024-01-30T14:28:43;11.20;56.30
20319;DHT22;10317;47.254;11.314;2024-01-30T14:31:11;10.90;57.00
20319;DHT22;10317;47.254;11.314;2024-01-30T14:33:37;10.70;57.50
20319;DHT22;10317;47.254;11.314;2024-01-30T14:36:03;10.50;57.80
20319;DHT22;10317;47.254;11.314;2024-01-30T14:38:29;10.40;57.60
20319;DHT22;10317;47.254;11.314;2024-01-30T14:40:54;10.30;58.20
20319;DHT22;10317;47.254;11.314;2024-01-30T14:43:20;10.10;57.70
20319;DHT22;10317;47.254;11.314;2024-01-30T14:45:46;10.00;58.50
20319;DHT22;10317;47.254;11.314;2024-01-30T14:48:15;10.00;58.60
20319;DHT22;10317;47.254;11.314;2024-01-30T14:50:40;10.00;59.10
20319;DHT22;10317;47.254;11.314;2024-01-30T14:53:06;10.00;59.10
20319;DHT22;10317;47.254;11.314;2024-01-30T14:55:32;9.90;59.10
20319;DHT22;10317;47.254;11.314;2024-01-30T14:57:58;9.90;59.10
20319;DHT22;10317;47.254;11.314;2024-01-30T15:00:25;9.80;59.70
20319;DHT22;10317;47.254;11.314;2024-01-30T15:02:50;9.60;59.60
20319;DHT22;10317;47.254;11.314;2024-01-30T15:05:16;9.30;61.00
20319;DHT22;10317;47.254;11.314;2024-01-30T15:07:42;9.00;62.00
20319;DHT22;10317;47.254;11.314;2024-01-30T15:10:08;8.80;61.50
20319;DHT22;10317;47.254;11.314;2024-01-30T15:12:35;8.60;62.20
20319;DHT22;10317;47.254;11.314;2024-01-30T15:15:01;8.50;63.20
20319;DHT22;10317;47.254;11.314;2024-01-30T15:17:27;8.40;63.30
20319;DHT22;10317;47.254;11.314;2024-01-30T15:19:52;8.30;64.00